FAOL weather

Othawa Airport
Otthawa, Limpopo, South Africa

Public forecast

Using degrees Celsius for public forecast. Weather courtesy of forecast.io.

METAR (pilot weather report)

Report is more than 6 hours old.

Closest report is Hoedspruit Air Force Base Airport, 29.1 nm (53.9 km) NW. Retrieved 2019/05/26 15:00 UTC (9 hours ago):

FAHS 261500Z AUTO 12004KT //// // ////// 23/07 Q1022

TAF (pilot weather forecast)

Forecast is more than 12 hours old.

Closest forecast is Hoedspruit Air Force Base Airport, 29.1 nm (53.9 km) NW. Retrieved 2017/05/23 04:01 UTC (2 years ago):

TAF FAHS 230300Z 2304/2315 VRB02KT CAVOK TX29/2312ZTN12/2304Z